sensor_id;sensor_type;location;lat;lon;timestamp;P1;durP1;ratioP1;P2;durP2;ratioP2
15516;SDS011;7860;52.030;5.572;2023-11-22T00:01:02;22.51;;;12.76;;
15516;SDS011;7860;52.030;5.572;2023-11-22T00:01:13;20.44;;;12.88;;
15516;SDS011;7860;52.030;5.572;2023-11-22T00:02:14;21.73;;;12.99;;
15516;SDS011;7860;52.030;5.572;2023-11-22T00:03:14;20.28;;;13.00;;
15516;SDS011;7860;52.030;5.572;2023-11-22T00:04:15;22.14;;;13.17;;
15516;SDS011;7860;52.030;5.572;2023-11-22T00:05:15;23.08;;;12.48;;
15516;SDS011;7860;52.030;5.572;2023-11-22T00:06:15;23.38;;;12.70;;
15516;SDS011;7860;52.030;5.572;2023-11-22T00:07:15;21.71;;;12.72;;
15516;SDS011;7860;52.030;5.572;2023-11-22T00:08:15;20.38;;;12.51;;
15516;SDS011;7860;52.030;5.572;2023-11-22T00:09:16;19.82;;;12.53;;
15516;SDS011;7860;52.030;5.572;2023-11-22T00:10:16;21.13;;;12.36;;
15516;SDS011;7860;52.030;5.572;2023-11-22T00:11:16;20.70;;;12.87;;
15516;SDS011;7860;52.030;5.572;2023-11-22T00:12:17;19.40;;;12.38;;
15516;SDS011;7860;52.030;5.572;2023-11-22T00:13:17;23.96;;;13.44;;
15516;SDS011;7860;52.030;5.572;2023-11-22T00:14:17;20.01;;;13.03;;
15516;SDS011;7860;52.030;5.572;2023-11-22T00:15:17;21.95;;;12.47;;
15516;SDS011;7860;52.030;5.572;2023-11-22T00:16:18;20.71;;;13.14;;
15516;SDS011;7860;52.030;5.572;2023-11-22T00:17:18;20.98;;;12.19;;
15516;SDS011;7860;52.030;5.572;2023-11-22T00:18:18;22.23;;;12.97;;
15516;SDS011;7860;52.030;5.572;2023-11-22T00:19:19;18.87;;;11.25;;
15516;SDS011;7860;52.030;5.572;2023-11-22T00:20:19;20.89;;;13.26;;
15516;SDS011;7860;52.030;5.572;2023-11-22T00:21:19;22.12;;;13.42;;
15516;SDS011;7860;52.030;5.572;2023-11-22T00:22:19;22.76;;;14.05;;
15516;SDS011;7860;52.030;5.572;2023-11-22T00:23:19;21.64;;;13.48;;
15516;SDS011;7860;52.030;5.572;2023-11-22T00:24:20;23.16;;;13.38;;
15516;SDS011;7860;52.030;5.572;2023-11-22T00:25:20;22.23;;;13.25;;
15516;SDS011;7860;52.030;5.572;2023-11-22T00:26:21;21.77;;;13.45;;
15516;SDS011;7860;52.030;5.572;2023-11-22T00:27:21;23.19;;;13.58;;
15516;SDS011;7860;52.030;5.572;2023-11-22T00:28:21;23.54;;;13.52;;
15516;SDS011;7860;52.030;5.572;2023-11-22T00:29:21;20.26;;;12.61;;
15516;SDS011;7860;52.030;5.572;2023-11-22T00:30:22;21.18;;;13.16;;
15516;SDS011;7860;52.030;5.572;2023-11-22T00:31:22;21.92;;;13.41;;
15516;SDS011;7860;52.030;5.572;2023-11-22T00:32:22;24.15;;;14.22;;
15516;SDS011;7860;52.030;5.572;2023-11-22T00:33:23;23.45;;;13.53;;
15516;SDS011;7860;52.030;5.572;2023-11-22T00:34:23;23.24;;;13.82;;
15516;SDS011;7860;52.030;5.572;2023-11-22T00:35:24;22.01;;;13.96;;
15516;SDS011;7860;52.030;5.572;2023-11-22T00:36:24;23.92;;;13.43;;
15516;SDS011;7860;52.030;5.572;2023-11-22T00:37:25;23.74;;;13.93;;
15516;SDS011;7860;52.030;5.572;2023-11-22T00:38:25;21.20;;;13.49;;
15516;SDS011;7860;52.030;5.572;2023-11-22T00:39:25;21.55;;;13.35;;
15516;SDS011;7860;52.030;5.572;2023-11-22T00:40:26;22.74;;;13.33;;
15516;SDS011;7860;52.030;5.572;2023-11-22T00:41:29;20.66;;;13.25;;
15516;SDS011;7860;52.030;5.572;2023-11-22T00:42:26;24.19;;;13.28;;
15516;SDS011;7860;52.030;5.572;2023-11-22T00:43:26;22.25;;;13.66;;
15516;SDS011;7860;52.030;5.572;2023-11-22T00:44:27;23.28;;;13.54;;
15516;SDS011;7860;52.030;5.572;2023-11-22T00:45:27;25.31;;;13.30;;
15516;SDS011;7860;52.030;5.572;2023-11-22T00:46:28;24.96;;;15.22;;
15516;SDS011;7860;52.030;5.572;2023-11-22T00:47:29;23.72;;;14.62;;
15516;SDS011;7860;52.030;5.572;2023-11-22T00:48:29;23.74;;;14.53;;
15516;SDS011;7860;52.030;5.572;2023-11-22T00:49:30;26.77;;;15.24;;
15516;SDS011;7860;52.030;5.572;2023-11-22T00:50:30;25.95;;;14.75;;
15516;SDS011;7860;52.030;5.572;2023-11-22T00:51:31;25.75;;;15.90;;
15516;SDS011;7860;52.030;5.572;2023-11-22T00:52:31;25.89;;;16.32;;
15516;SDS011;7860;52.030;5.572;2023-11-22T00:53:31;24.08;;;15.46;;
15516;SDS011;7860;52.030;5.572;2023-11-22T00:54:31;28.86;;;15.68;;
15516;SDS011;7860;52.030;5.572;2023-11-22T00:55:32;21.87;;;14.32;;
15516;SDS011;7860;52.030;5.572;2023-11-22T00:56:32;23.91;;;15.30;;
15516;SDS011;7860;52.030;5.572;2023-11-22T00:57:32;26.50;;;15.60;;
15516;SDS011;7860;52.030;5.572;2023-11-22T00:58:32;24.25;;;14.80;;
15516;SDS011;7860;52.030;5.572;2023-11-22T00:59:33;23.56;;;14.71;;
15516;SDS011;7860;52.030;5.572;2023-11-22T01:00:33;24.70;;;14.45;;
15516;SDS011;7860;52.030;5.572;2023-11-22T01:01:34;25.89;;;14.81;;
15516;SDS011;7860;52.030;5.572;2023-11-22T01:02:34;25.36;;;14.74;;
15516;SDS011;7860;52.030;5.572;2023-11-22T01:03:35;23.76;;;14.02;;
15516;SDS011;7860;52.030;5.572;2023-11-22T01:04:35;22.21;;;14.39;;
15516;SDS011;7860;52.030;5.572;2023-11-22T01:05:36;25.08;;;15.29;;
15516;SDS011;7860;52.030;5.572;2023-11-22T01:06:36;22.55;;;14.37;;
15516;SDS011;7860;52.030;5.572;2023-11-22T01:07:36;26.20;;;15.73;;
15516;SDS011;7860;52.030;5.572;2023-11-22T01:08:37;26.66;;;16.48;;
15516;SDS011;7860;52.030;5.572;2023-11-22T01:09:37;26.13;;;16.06;;
15516;SDS011;7860;52.030;5.572;2023-11-22T01:10:38;26.81;;;16.08;;
15516;SDS011;7860;52.030;5.572;2023-11-22T01:11:38;23.71;;;15.25;;
15516;SDS011;7860;52.030;5.572;2023-11-22T01:12:38;29.75;;;17.17;;
15516;SDS011;7860;52.030;5.572;2023-11-22T01:13:39;27.33;;;15.98;;
15516;SDS011;7860;52.030;5.572;2023-11-22T01:14:39;25.66;;;16.35;;
15516;SDS011;7860;52.030;5.572;2023-11-22T01:15:40;23.56;;;14.57;;
15516;SDS011;7860;52.030;5.572;2023-11-22T01:16:40;25.39;;;15.48;;
15516;SDS011;7860;52.030;5.572;2023-11-22T01:17:41;25.92;;;15.38;;
15516;SDS011;7860;52.030;5.572;2023-11-22T01:18:41;26.87;;;16.44;;
15516;SDS011;7860;52.030;5.572;2023-11-22T01:19:41;26.93;;;16.16;;
15516;SDS011;7860;52.030;5.572;2023-11-22T01:20:42;24.94;;;15.64;;
15516;SDS011;7860;52.030;5.572;2023-11-22T01:21:42;27.17;;;15.82;;
15516;SDS011;7860;52.030;5.572;2023-11-22T01:22:43;27.78;;;15.50;;
15516;SDS011;7860;52.030;5.572;2023-11-22T01:23:43;31.78;;;16.19;;
15516;SDS011;7860;52.030;5.572;2023-11-22T01:24:44;27.73;;;16.03;;
15516;SDS011;7860;52.030;5.572;2023-11-22T01:25:44;27.84;;;14.36;;
15516;SDS011;7860;52.030;5.572;2023-11-22T01:26:44;27.73;;;14.74;;
15516;SDS011;7860;52.030;5.572;2023-11-22T01:27:45;26.91;;;14.96;;
15516;SDS011;7860;52.030;5.572;2023-11-22T01:28:45;26.51;;;14.80;;
15516;SDS011;7860;52.030;5.572;2023-11-22T01:29:46;27.93;;;14.92;;
15516;SDS011;7860;52.030;5.572;2023-11-22T01:30:46;26.67;;;14.90;;
15516;SDS011;7860;52.030;5.572;2023-11-22T01:31:47;28.17;;;15.68;;
15516;SDS011;7860;52.030;5.572;2023-11-22T01:32:47;29.68;;;16.12;;
15516;SDS011;7860;52.030;5.572;2023-11-22T01:33:47;27.05;;;15.40;;
15516;SDS011;7860;52.030;5.572;2023-11-22T01:34:48;26.06;;;15.29;;
15516;SDS011;7860;52.030;5.572;2023-11-22T01:35:48;28.04;;;15.60;;
15516;SDS011;7860;52.030;5.572;2023-11-22T01:36:49;28.33;;;15.64;;
15516;SDS011;7860;52.030;5.572;2023-11-22T01:37:49;33.33;;;16.69;;
15516;SDS011;7860;52.030;5.572;2023-11-22T01:38:49;29.75;;;15.19;;
15516;SDS011;7860;52.030;5.572;2023-11-22T01:39:49;26.00;;;15.11;;
15516;SDS011;7860;52.030;5.572;2023-11-22T01:40:51;28.26;;;15.96;;
15516;SDS011;7860;52.030;5.572;2023-11-22T01:41:50;26.50;;;15.09;;
15516;SDS011;7860;52.030;5.572;2023-11-22T01:42:51;26.63;;;15.65;;
15516;SDS011;7860;52.030;5.572;2023-11-22T01:43:51;28.08;;;16.82;;
15516;SDS011;7860;52.030;5.572;2023-11-22T01:44:51;29.05;;;16.83;;
15516;SDS011;7860;52.030;5.572;2023-11-22T01:45:53;34.91;;;17.73;;
15516;SDS011;7860;52.030;5.572;2023-11-22T01:46:52;31.80;;;16.80;;
15516;SDS011;7860;52.030;5.572;2023-11-22T01:47:53;29.88;;;16.68;;
15516;SDS011;7860;52.030;5.572;2023-11-22T01:48:53;30.45;;;17.16;;
15516;SDS011;7860;52.030;5.572;2023-11-22T01:49:53;29.69;;;16.48;;
15516;SDS011;7860;52.030;5.572;2023-11-22T01:50:54;28.51;;;15.04;;
15516;SDS011;7860;52.030;5.572;2023-11-22T01:51:54;30.02;;;17.42;;
15516;SDS011;7860;52.030;5.572;2023-11-22T01:52:55;29.40;;;17.19;;
15516;SDS011;7860;52.030;5.572;2023-11-22T01:53:56;29.64;;;15.99;;
15516;SDS011;7860;52.030;5.572;2023-11-22T01:54:55;29.06;;;17.39;;
15516;SDS011;7860;52.030;5.572;2023-11-22T01:55:56;33.21;;;17.66;;
15516;SDS011;7860;52.030;5.572;2023-11-22T01:56:56;31.19;;;16.47;;
15516;SDS011;7860;52.030;5.572;2023-11-22T01:57:57;25.58;;;15.29;;
15516;SDS011;7860;52.030;5.572;2023-11-22T01:58:57;24.51;;;13.90;;
15516;SDS011;7860;52.030;5.572;2023-11-22T01:59:58;29.45;;;16.48;;
15516;SDS011;7860;52.030;5.572;2023-11-22T02:00:58;32.88;;;16.73;;
15516;SDS011;7860;52.030;5.572;2023-11-22T02:01:59;30.27;;;16.39;;
15516;SDS011;7860;52.030;5.572;2023-11-22T02:02:59;29.92;;;16.25;;
15516;SDS011;7860;52.030;5.572;2023-11-22T02:04:00;28.02;;;16.52;;
15516;SDS011;7860;52.030;5.572;2023-11-22T02:05:01;30.57;;;16.74;;
15516;SDS011;7860;52.030;5.572;2023-11-22T02:06:01;30.78;;;17.51;;
15516;SDS011;7860;52.030;5.572;2023-11-22T02:07:02;33.64;;;18.48;;
15516;SDS011;7860;52.030;5.572;2023-11-22T02:08:02;30.05;;;16.28;;
15516;SDS011;7860;52.030;5.572;2023-11-22T02:09:02;33.24;;;16.77;;
15516;SDS011;7860;52.030;5.572;2023-11-22T02:10:05;31.80;;;16.06;;
15516;SDS011;7860;52.030;5.572;2023-11-22T02:11:03;27.69;;;15.22;;
15516;SDS011;7860;52.030;5.572;2023-11-22T02:12:04;32.58;;;16.09;;
15516;SDS011;7860;52.030;5.572;2023-11-22T02:13:05;30.56;;;16.59;;
15516;SDS011;7860;52.030;5.572;2023-11-22T02:14:05;29.61;;;16.69;;
15516;SDS011;7860;52.030;5.572;2023-11-22T02:15:05;30.37;;;16.38;;
15516;SDS011;7860;52.030;5.572;2023-11-22T02:16:05;31.80;;;16.80;;
15516;SDS011;7860;52.030;5.572;2023-11-22T02:17:06;31.24;;;16.57;;
15516;SDS011;7860;52.030;5.572;2023-11-22T02:18:07;32.85;;;17.34;;
15516;SDS011;7860;52.030;5.572;2023-11-22T02:19:07;31.91;;;17.71;;
15516;SDS011;7860;52.030;5.572;2023-11-22T02:20:08;33.43;;;17.57;;
15516;SDS011;7860;52.030;5.572;2023-11-22T02:21:07;38.93;;;18.09;;
15516;SDS011;7860;52.030;5.572;2023-11-22T02:22:08;27.96;;;16.56;;
15516;SDS011;7860;52.030;5.572;2023-11-22T02:23:09;26.34;;;15.25;;
15516;SDS011;7860;52.030;5.572;2023-11-22T02:24:08;33.99;;;17.54;;
15516;SDS011;7860;52.030;5.572;2023-11-22T02:25:08;25.84;;;15.81;;
15516;SDS011;7860;52.030;5.572;2023-11-22T02:26:09;34.74;;;17.29;;
15516;SDS011;7860;52.030;5.572;2023-11-22T02:27:09;31.06;;;17.90;;
15516;SDS011;7860;52.030;5.572;2023-11-22T02:28:10;35.34;;;18.99;;
15516;SDS011;7860;52.030;5.572;2023-11-22T02:29:11;37.51;;;18.93;;
15516;SDS011;7860;52.030;5.572;2023-11-22T02:30:12;38.64;;;18.78;;
15516;SDS011;7860;52.030;5.572;2023-11-22T02:31:12;34.66;;;17.18;;
15516;SDS011;7860;52.030;5.572;2023-11-22T02:32:13;32.77;;;17.24;;
15516;SDS011;7860;52.030;5.572;2023-11-22T02:33:13;34.51;;;17.85;;
15516;SDS011;7860;52.030;5.572;2023-11-22T02:34:14;31.84;;;17.45;;
15516;SDS011;7860;52.030;5.572;2023-11-22T02:35:14;32.40;;;17.74;;
15516;SDS011;7860;52.030;5.572;2023-11-22T02:36:15;30.06;;;16.25;;
15516;SDS011;7860;52.030;5.572;2023-11-22T02:37:16;33.98;;;17.81;;
15516;SDS011;7860;52.030;5.572;2023-11-22T02:38:16;32.08;;;17.17;;
15516;SDS011;7860;52.030;5.572;2023-11-22T02:39:17;35.90;;;17.85;;
15516;SDS011;7860;52.030;5.572;2023-11-22T02:40:17;34.84;;;17.37;;
15516;SDS011;7860;52.030;5.572;2023-11-22T02:41:18;30.16;;;16.73;;
15516;SDS011;7860;52.030;5.572;2023-11-22T02:42:18;30.40;;;15.70;;
15516;SDS011;7860;52.030;5.572;2023-11-22T02:43:19;137.78;;;20.72;;
15516;SDS011;7860;52.030;5.572;2023-11-22T02:44:19;27.37;;;14.91;;
15516;SDS011;7860;52.030;5.572;2023-11-22T02:45:21;30.67;;;16.96;;
15516;SDS011;7860;52.030;5.572;2023-11-22T02:46:20;36.89;;;18.27;;
15516;SDS011;7860;52.030;5.572;2023-11-22T02:47:21;32.30;;;17.35;;
15516;SDS011;7860;52.030;5.572;2023-11-22T02:48:21;31.17;;;16.96;;
15516;SDS011;7860;52.030;5.572;2023-11-22T02:49:22;33.65;;;18.33;;
15516;SDS011;7860;52.030;5.572;2023-11-22T02:50:22;41.59;;;18.45;;
15516;SDS011;7860;52.030;5.572;2023-11-22T02:51:23;36.33;;;18.18;;
15516;SDS011;7860;52.030;5.572;2023-11-22T02:52:23;36.40;;;18.35;;
15516;SDS011;7860;52.030;5.572;2023-11-22T02:53:24;31.96;;;16.98;;
15516;SDS011;7860;52.030;5.572;2023-11-22T02:54:24;31.79;;;17.49;;
15516;SDS011;7860;52.030;5.572;2023-11-22T02:55:24;33.14;;;16.71;;
15516;SDS011;7860;52.030;5.572;2023-11-22T02:56:25;37.07;;;17.76;;
15516;SDS011;7860;52.030;5.572;2023-11-22T02:57:25;35.61;;;17.27;;
15516;SDS011;7860;52.030;5.572;2023-11-22T02:58:26;29.00;;;16.01;;
15516;SDS011;7860;52.030;5.572;2023-11-22T02:59:26;35.25;;;17.39;;
15516;SDS011;7860;52.030;5.572;2023-11-22T03:00:26;33.51;;;17.63;;
15516;SDS011;7860;52.030;5.572;2023-11-22T03:01:27;34.63;;;17.83;;
15516;SDS011;7860;52.030;5.572;2023-11-22T03:02:27;42.07;;;17.05;;
15516;SDS011;7860;52.030;5.572;2023-11-22T03:03:27;33.13;;;17.84;;
15516;SDS011;7860;52.030;5.572;2023-11-22T03:04:28;29.90;;;15.44;;
15516;SDS011;7860;52.030;5.572;2023-11-22T03:05:28;29.04;;;15.19;;
15516;SDS011;7860;52.030;5.572;2023-11-22T03:06:29;33.57;;;17.54;;
15516;SDS011;7860;52.030;5.572;2023-11-22T03:07:29;31.98;;;16.90;;
15516;SDS011;7860;52.030;5.572;2023-11-22T03:08:29;34.54;;;18.18;;
15516;SDS011;7860;52.030;5.572;2023-11-22T03:09:30;35.48;;;18.39;;
15516;SDS011;7860;52.030;5.572;2023-11-22T03:10:30;35.42;;;18.03;;
15516;SDS011;7860;52.030;5.572;2023-11-22T03:11:31;34.38;;;18.06;;
15516;SDS011;7860;52.030;5.572;2023-11-22T03:12:31;36.37;;;19.65;;
15516;SDS011;7860;52.030;5.572;2023-11-22T03:13:32;36.49;;;18.96;;
15516;SDS011;7860;52.030;5.572;2023-11-22T03:14:33;34.84;;;17.86;;
15516;SDS011;7860;52.030;5.572;2023-11-22T03:15:33;36.74;;;18.71;;
15516;SDS011;7860;52.030;5.572;2023-11-22T03:16:33;35.72;;;18.18;;
15516;SDS011;7860;52.030;5.572;2023-11-22T03:17:34;36.61;;;18.68;;
15516;SDS011;7860;52.030;5.572;2023-11-22T03:18:34;36.31;;;19.30;;
15516;SDS011;7860;52.030;5.572;2023-11-22T03:19:35;38.03;;;18.97;;
15516;SDS011;7860;52.030;5.572;2023-11-22T03:20:35;38.27;;;18.43;;
15516;SDS011;7860;52.030;5.572;2023-11-22T03:21:36;37.11;;;19.03;;
15516;SDS011;7860;52.030;5.572;2023-11-22T03:22:36;35.30;;;18.76;;
15516;SDS011;7860;52.030;5.572;2023-11-22T03:23:37;38.80;;;19.09;;
15516;SDS011;7860;52.030;5.572;2023-11-22T03:24:37;36.01;;;18.55;;
15516;SDS011;7860;52.030;5.572;2023-11-22T03:25:38;34.72;;;18.08;;
15516;SDS011;7860;52.030;5.572;2023-11-22T03:26:38;42.40;;;19.73;;
15516;SDS011;7860;52.030;5.572;2023-11-22T03:27:39;36.81;;;19.61;;
15516;SDS011;7860;52.030;5.572;2023-11-22T03:28:39;40.62;;;19.01;;
15516;SDS011;7860;52.030;5.572;2023-11-22T03:29:39;35.11;;;17.82;;
15516;SDS011;7860;52.030;5.572;2023-11-22T03:30:39;36.76;;;18.40;;
15516;SDS011;7860;52.030;5.572;2023-11-22T03:31:40;31.98;;;16.24;;
15516;SDS011;7860;52.030;5.572;2023-11-22T03:32:40;33.38;;;17.28;;
15516;SDS011;7860;52.030;5.572;2023-11-22T03:33:41;32.12;;;17.07;;
15516;SDS011;7860;52.030;5.572;2023-11-22T03:34:41;32.68;;;17.45;;
15516;SDS011;7860;52.030;5.572;2023-11-22T03:35:42;34.18;;;17.52;;
15516;SDS011;7860;52.030;5.572;2023-11-22T03:36:42;34.00;;;17.96;;
15516;SDS011;7860;52.030;5.572;2023-11-22T03:37:43;33.84;;;17.80;;
15516;SDS011;7860;52.030;5.572;2023-11-22T03:38:44;33.85;;;18.56;;
15516;SDS011;7860;52.030;5.572;2023-11-22T03:39:44;35.48;;;18.07;;
15516;SDS011;7860;52.030;5.572;2023-11-22T03:40:44;32.61;;;17.37;;
15516;SDS011;7860;52.030;5.572;2023-11-22T03:41:45;35.21;;;17.97;;
15516;SDS011;7860;52.030;5.572;2023-11-22T03:42:45;36.92;;;18.67;;
15516;SDS011;7860;52.030;5.572;2023-11-22T03:43:46;39.13;;;17.98;;
15516;SDS011;7860;52.030;5.572;2023-11-22T03:44:46;34.43;;;17.18;;
15516;SDS011;7860;52.030;5.572;2023-11-22T03:45:47;34.94;;;17.25;;
15516;SDS011;7860;52.030;5.572;2023-11-22T03:46:48;27.80;;;15.16;;
15516;SDS011;7860;52.030;5.572;2023-11-22T03:47:48;37.00;;;17.99;;
15516;SDS011;7860;52.030;5.572;2023-11-22T03:48:48;36.38;;;17.88;;
15516;SDS011;7860;52.030;5.572;2023-11-22T03:49:49;33.34;;;17.83;;
15516;SDS011;7860;52.030;5.572;2023-11-22T03:50:49;33.92;;;17.46;;
15516;SDS011;7860;52.030;5.572;2023-11-22T03:51:50;32.60;;;17.09;;
15516;SDS011;7860;52.030;5.572;2023-11-22T03:52:50;35.45;;;17.82;;
15516;SDS011;7860;52.030;5.572;2023-11-22T03:53:51;33.39;;;17.63;;
15516;SDS011;7860;52.030;5.572;2023-11-22T03:54:52;37.80;;;17.87;;
15516;SDS011;7860;52.030;5.572;2023-11-22T03:55:52;35.08;;;17.85;;
15516;SDS011;7860;52.030;5.572;2023-11-22T03:56:53;33.98;;;17.81;;
15516;SDS011;7860;52.030;5.572;2023-11-22T03:57:53;34.34;;;17.27;;
15516;SDS011;7860;52.030;5.572;2023-11-22T03:58:54;42.26;;;18.06;;
15516;SDS011;7860;52.030;5.572;2023-11-22T03:59:53;42.43;;;18.78;;
15516;SDS011;7860;52.030;5.572;2023-11-22T04:00:54;39.56;;;18.58;;
15516;SDS011;7860;52.030;5.572;2023-11-22T04:01:54;38.41;;;18.52;;
15516;SDS011;7860;52.030;5.572;2023-11-22T04:02:55;45.84;;;18.89;;
15516;SDS011;7860;52.030;5.572;2023-11-22T04:03:55;33.83;;;17.43;;
15516;SDS011;7860;52.030;5.572;2023-11-22T04:04:56;33.82;;;16.51;;
15516;SDS011;7860;52.030;5.572;2023-11-22T04:05:56;31.21;;;14.94;;
15516;SDS011;7860;52.030;5.572;2023-11-22T04:06:56;30.92;;;15.85;;
15516;SDS011;7860;52.030;5.572;2023-11-22T04:07:57;30.94;;;16.34;;
15516;SDS011;7860;52.030;5.572;2023-11-22T04:08:58;26.51;;;14.01;;
15516;SDS011;7860;52.030;5.572;2023-11-22T04:09:58;32.79;;;16.80;;
15516;SDS011;7860;52.030;5.572;2023-11-22T04:10:58;39.40;;;18.08;;
15516;SDS011;7860;52.030;5.572;2023-11-22T04:11:59;34.58;;;17.96;;
15516;SDS011;7860;52.030;5.572;2023-11-22T04:12:59;38.41;;;17.90;;
15516;SDS011;7860;52.030;5.572;2023-11-22T04:14:00;35.68;;;17.65;;
15516;SDS011;7860;52.030;5.572;2023-11-22T04:15:00;36.16;;;17.95;;
15516;SDS011;7860;52.030;5.572;2023-11-22T04:16:01;33.46;;;18.07;;
15516;SDS011;7860;52.030;5.572;2023-11-22T04:17:01;33.85;;;17.57;;
15516;SDS011;7860;52.030;5.572;2023-11-22T04:18:02;35.76;;;18.41;;
15516;SDS011;7860;52.030;5.572;2023-11-22T04:19:02;35.78;;;18.35;;
15516;SDS011;7860;52.030;5.572;2023-11-22T04:20:03;38.09;;;19.35;;
15516;SDS011;7860;52.030;5.572;2023-11-22T04:21:03;36.45;;;18.17;;
15516;SDS011;7860;52.030;5.572;2023-11-22T04:22:04;34.39;;;17.97;;
15516;SDS011;7860;52.030;5.572;2023-11-22T04:23:04;34.04;;;18.05;;
15516;SDS011;7860;52.030;5.572;2023-11-22T04:24:04;35.12;;;17.81;;
15516;SDS011;7860;52.030;5.572;2023-11-22T04:25:05;33.28;;;16.96;;
15516;SDS011;7860;52.030;5.572;2023-11-22T04:26:05;36.46;;;17.54;;
15516;SDS011;7860;52.030;5.572;2023-11-22T04:27:06;36.18;;;18.65;;
15516;SDS011;7860;52.030;5.572;2023-11-22T04:28:07;37.65;;;18.06;;
15516;SDS011;7860;52.030;5.572;2023-11-22T04:29:07;33.77;;;18.55;;
15516;SDS011;7860;52.030;5.572;2023-11-22T04:30:08;33.12;;;18.21;;
15516;SDS011;7860;52.030;5.572;2023-11-22T04:31:07;38.60;;;19.36;;
15516;SDS011;7860;52.030;5.572;2023-11-22T04:32:08;36.90;;;18.12;;
15516;SDS011;7860;52.030;5.572;2023-11-22T04:33:08;34.02;;;17.73;;
15516;SDS011;7860;52.030;5.572;2023-11-22T04:34:09;33.68;;;17.03;;
15516;SDS011;7860;52.030;5.572;2023-11-22T04:35:10;34.80;;;17.58;;
15516;SDS011;7860;52.030;5.572;2023-11-22T04:36:10;44.59;;;18.67;;
15516;SDS011;7860;52.030;5.572;2023-11-22T04:37:11;28.83;;;15.14;;
15516;SDS011;7860;52.030;5.572;2023-11-22T04:38:11;27.21;;;15.13;;
15516;SDS011;7860;52.030;5.572;2023-11-22T04:39:11;28.10;;;14.59;;
15516;SDS011;7860;52.030;5.572;2023-11-22T04:40:12;34.91;;;17.31;;
15516;SDS011;7860;52.030;5.572;2023-11-22T04:41:13;36.95;;;17.44;;
15516;SDS011;7860;52.030;5.572;2023-11-22T04:42:13;33.38;;;17.41;;
15516;SDS011;7860;52.030;5.572;2023-11-22T04:43:14;33.97;;;16.58;;
15516;SDS011;7860;52.030;5.572;2023-11-22T04:44:14;32.42;;;16.98;;
15516;SDS011;7860;52.030;5.572;2023-11-22T04:45:15;33.20;;;17.23;;
15516;SDS011;7860;52.030;5.572;2023-11-22T04:46:15;33.44;;;16.64;;
15516;SDS011;7860;52.030;5.572;2023-11-22T04:47:16;32.67;;;17.26;;
15516;SDS011;7860;52.030;5.572;2023-11-22T04:48:16;28.78;;;16.26;;
15516;SDS011;7860;52.030;5.572;2023-11-22T04:49:17;31.88;;;16.80;;
15516;SDS011;7860;52.030;5.572;2023-11-22T04:50:17;32.81;;;15.94;;
15516;SDS011;7860;52.030;5.572;2023-11-22T04:51:18;31.97;;;16.34;;
15516;SDS011;7860;52.030;5.572;2023-11-22T04:52:18;38.16;;;17.22;;
15516;SDS011;7860;52.030;5.572;2023-11-22T04:53:18;32.12;;;17.26;;
15516;SDS011;7860;52.030;5.572;2023-11-22T04:54:19;31.82;;;16.54;;
15516;SDS011;7860;52.030;5.572;2023-11-22T04:55:19;35.60;;;17.07;;
15516;SDS011;7860;52.030;5.572;2023-11-22T04:56:19;33.65;;;16.79;;
15516;SDS011;7860;52.030;5.572;2023-11-22T04:57:20;34.28;;;17.37;;
15516;SDS011;7860;52.030;5.572;2023-11-22T04:58:21;31.79;;;16.67;;
15516;SDS011;7860;52.030;5.572;2023-11-22T04:59:21;30.76;;;16.20;;
15516;SDS011;7860;52.030;5.572;2023-11-22T05:00:22;34.87;;;17.75;;
15516;SDS011;7860;52.030;5.572;2023-11-22T05:01:22;32.14;;;16.49;;
15516;SDS011;7860;52.030;5.572;2023-11-22T05:02:23;29.18;;;15.65;;
15516;SDS011;7860;52.030;5.572;2023-11-22T05:03:23;31.27;;;15.60;;
15516;SDS011;7860;52.030;5.572;2023-11-22T05:04:23;28.40;;;14.64;;
15516;SDS011;7860;52.030;5.572;2023-11-22T05:05:24;39.62;;;16.77;;
15516;SDS011;7860;52.030;5.572;2023-11-22T05:06:25;23.83;;;13.11;;
15516;SDS011;7860;52.030;5.572;2023-11-22T05:07:25;26.76;;;13.30;;
15516;SDS011;7860;52.030;5.572;2023-11-22T05:08:26;32.53;;;15.67;;
15516;SDS011;7860;52.030;5.572;2023-11-22T05:09:26;32.76;;;15.23;;
15516;SDS011;7860;52.030;5.572;2023-11-22T05:10:27;30.66;;;14.40;;
15516;SDS011;7860;52.030;5.572;2023-11-22T05:11:27;33.78;;;15.91;;
15516;SDS011;7860;52.030;5.572;2023-11-22T05:12:28;28.97;;;14.07;;
15516;SDS011;7860;52.030;5.572;2023-11-22T05:13:28;99.85;;;19.05;;
15516;SDS011;7860;52.030;5.572;2023-11-22T05:14:29;37.69;;;15.40;;
15516;SDS011;7860;52.030;5.572;2023-11-22T05:15:29;27.84;;;13.92;;
15516;SDS011;7860;52.030;5.572;2023-11-22T05:16:30;36.86;;;16.29;;
15516;SDS011;7860;52.030;5.572;2023-11-22T05:17:30;30.84;;;15.11;;
15516;SDS011;7860;52.030;5.572;2023-11-22T05:18:31;32.06;;;15.86;;
15516;SDS011;7860;52.030;5.572;2023-11-22T05:19:31;137.46;;;20.60;;
15516;SDS011;7860;52.030;5.572;2023-11-22T05:20:32;31.84;;;15.46;;
15516;SDS011;7860;52.030;5.572;2023-11-22T05:21:32;38.59;;;16.89;;
15516;SDS011;7860;52.030;5.572;2023-11-22T05:22:33;35.19;;;16.15;;
15516;SDS011;7860;52.030;5.572;2023-11-22T05:23:33;35.85;;;17.14;;
15516;SDS011;7860;52.030;5.572;2023-11-22T05:24:34;35.48;;;17.10;;
15516;SDS011;7860;52.030;5.572;2023-11-22T05:25:34;39.46;;;16.93;;
15516;SDS011;7860;52.030;5.572;2023-11-22T05:26:35;35.57;;;17.42;;
15516;SDS011;7860;52.030;5.572;2023-11-22T05:27:35;35.69;;;17.21;;
15516;SDS011;7860;52.030;5.572;2023-11-22T05:28:36;37.68;;;17.87;;
15516;SDS011;7860;52.030;5.572;2023-11-22T05:29:36;36.93;;;17.48;;
15516;SDS011;7860;52.030;5.572;2023-11-22T05:30:37;38.46;;;17.55;;
15516;SDS011;7860;52.030;5.572;2023-11-22T05:31:37;32.01;;;16.58;;
15516;SDS011;7860;52.030;5.572;2023-11-22T05:32:38;32.47;;;17.07;;
15516;SDS011;7860;52.030;5.572;2023-11-22T05:33:38;40.15;;;17.10;;
15516;SDS011;7860;52.030;5.572;2023-11-22T05:34:39;33.91;;;17.03;;
15516;SDS011;7860;52.030;5.572;2023-11-22T05:35:39;36.00;;;17.73;;
15516;SDS011;7860;52.030;5.572;2023-11-22T05:36:40;39.66;;;18.24;;
15516;SDS011;7860;52.030;5.572;2023-11-22T05:37:40;37.74;;;17.36;;
15516;SDS011;7860;52.030;5.572;2023-11-22T05:38:41;41.24;;;18.37;;
15516;SDS011;7860;52.030;5.572;2023-11-22T05:39:42;36.55;;;17.27;;
15516;SDS011;7860;52.030;5.572;2023-11-22T05:40:42;33.87;;;16.75;;
15516;SDS011;7860;52.030;5.572;2023-11-22T05:41:42;33.04;;;16.87;;
15516;SDS011;7860;52.030;5.572;2023-11-22T05:42:43;35.04;;;17.97;;
15516;SDS011;7860;52.030;5.572;2023-11-22T05:43:43;30.59;;;16.48;;
15516;SDS011;7860;52.030;5.572;2023-11-22T05:44:44;28.02;;;14.61;;
15516;SDS011;7860;52.030;5.572;2023-11-22T05:45:44;29.65;;;14.68;;
15516;SDS011;7860;52.030;5.572;2023-11-22T05:46:45;33.16;;;16.67;;
15516;SDS011;7860;52.030;5.572;2023-11-22T05:47:46;36.78;;;17.59;;
15516;SDS011;7860;52.030;5.572;2023-11-22T05:48:46;34.52;;;17.29;;
15516;SDS011;7860;52.030;5.572;2023-11-22T05:49:46;34.16;;;17.35;;
15516;SDS011;7860;52.030;5.572;2023-11-22T05:50:47;37.98;;;17.70;;
15516;SDS011;7860;52.030;5.572;2023-11-22T05:51:48;33.44;;;16.96;;
15516;SDS011;7860;52.030;5.572;2023-11-22T05:52:48;32.61;;;16.60;;
15516;SDS011;7860;52.030;5.572;2023-11-22T05:53:49;35.30;;;17.35;;
15516;SDS011;7860;52.030;5.572;2023-11-22T05:54:49;32.34;;;16.48;;
15516;SDS011;7860;52.030;5.572;2023-11-22T05:55:49;32.18;;;16.26;;
15516;SDS011;7860;52.030;5.572;2023-11-22T05:56:50;34.42;;;17.14;;
15516;SDS011;7860;52.030;5.572;2023-11-22T05:57:50;33.02;;;16.96;;